Time;durP1;ratioP1;P1;durP2;ratioP2;P2;SDS_P1;SDS_P2;PMS_P1;PMS_P2;Temp;Humidity;BMP_temperature;BMP_pressure;BME280_temperature;BME280_humidity;BME280_pressure;Samples;Min_cycle;Max_cycle;Signal;HPM_P1;HPM_P2
2023/07/30 00:02:06;;;;;;;1.92;1.80;;;21.90;95.90;;;;;;950044;147;27426;-73
2023/07/30 00:04:32;;;;;;;2.35;1.82;;;21.90;96.10;;;;;;950253;147;27439;-73
2023/07/30 00:06:59;;;;;;;2.12;1.90;;;21.90;96.30;;;;;;950566;147;27454;-73
2023/07/30 00:09:25;;;;;;;1.87;1.77;;;21.80;96.20;;;;;;949187;146;27339;-73
2023/07/30 00:11:52;;;;;;;2.25;2.05;;;21.80;96.40;;;;;;948594;146;27348;-73
2023/07/30 00:14:19;;;;;;;1.87;1.77;;;21.70;96.60;;;;;;933296;150;27485;-73
2023/07/30 00:16:45;;;;;;;2.00;1.85;;;21.70;96.80;;;;;;951053;147;27336;-73
2023/07/30 00:19:12;;;;;;;2.10;1.90;;;21.60;96.90;;;;;;949935;147;27340;-73
2023/07/30 00:21:38;;;;;;;2.75;2.25;;;21.60;97.10;;;;;;949514;147;27486;-73
2023/07/30 00:24:05;;;;;;;4.33;2.02;;;21.50;97.40;;;;;;950746;147;27687;-73
2023/07/30 00:26:32;;;;;;;2.40;2.20;;;21.50;97.40;;;;;;949270;146;27323;-73
2023/07/30 00:28:58;;;;;;;2.45;2.15;;;21.40;97.60;;;;;;933170;149;27346;-73
2023/07/30 00:31:25;;;;;;;2.20;2.00;;;21.40;97.70;;;;;;935112;149;27388;-73
2023/07/30 00:33:51;;;;;;;2.10;2.00;;;21.30;98.00;;;;;;949807;147;27355;-73
2023/07/30 00:36:18;;;;;;;2.42;2.22;;;21.30;98.20;;;;;;950106;147;27386;-73
2023/07/30 00:38:45;;;;;;;2.87;1.90;;;21.20;98.40;;;;;;950401;147;27340;-73
2023/07/30 00:41:11;;;;;;;2.30;2.10;;;21.10;98.70;;;;;;949967;147;27345;-74
2023/07/30 00:43:38;;;;;;;2.10;2.00;;;21.10;98.90;;;;;;950299;147;27442;-75
2023/07/30 00:46:04;;;;;;;2.85;2.60;;;21.00;99.30;;;;;;948692;146;27328;-75
2023/07/30 00:48:31;;;;;;;3.50;2.02;;;21.00;99.50;;;;;;933269;150;27420;-75
2023/07/30 00:50:58;;;;;;;4.65;2.47;;;21.00;99.80;;;;;;949895;147;27341;-75
2023/07/30 00:53:24;;;;;;;2.45;2.25;;;20.90;99.90;;;;;;949849;147;27334;-75
2023/07/30 00:55:50;;;;;;;6.05;2.47;;;20.90;99.90;;;;;;927258;150;27451;-75
2023/07/30 00:58:17;;;;;;;2.83;2.00;;;20.80;99.90;;;;;;941971;149;27340;-75
2023/07/30 01:00:44;;;;;;;2.45;2.25;;;20.80;99.90;;;;;;933559;150;27343;-75
2023/07/30 01:03:10;;;;;;;2.12;2.00;;;20.80;99.90;;;;;;950344;147;27355;-75
2023/07/30 01:05:37;;;;;;;2.58;2.37;;;20.80;99.90;;;;;;949913;147;27313;-75
2023/07/30 01:08:03;;;;;;;2.17;2.00;;;20.80;99.90;;;;;;950431;147;27341;-75
2023/07/30 01:10:30;;;;;;;2.00;1.90;;;20.80;99.90;;;;;;949186;146;27494;-75
2023/07/30 01:12:57;;;;;;;2.05;1.70;;;20.80;99.90;;;;;;933646;150;27367;-75
2023/07/30 01:15:23;;;;;;;2.00;1.90;;;20.80;99.90;;;;;;949321;147;27317;-75
2023/07/30 01:17:50;;;;;;;2.08;1.90;;;20.80;99.90;;;;;;950794;147;27293;-75
2023/07/30 01:20:16;;;;;;;2.12;1.92;;;20.70;99.90;;;;;;933468;150;27435;-75
2023/07/30 01:22:43;;;;;;;2.20;2.02;;;20.80;99.90;;;;;;949860;147;27426;-75
2023/07/30 01:25:10;;;;;;;1.90;1.80;;;20.80;99.90;;;;;;949814;147;27328;-75
2023/07/30 01:27:36;;;;;;;1.98;1.87;;;20.80;99.90;;;;;;932583;150;27277;-75
2023/07/30 01:30:08;;;;;;;2.33;2.12;;;20.80;99.90;;;;;;933767;149;27410;-75
2023/07/30 01:32:35;;;;;;;2.80;2.40;;;20.80;99.90;;;;;;924508;150;27349;-75
2023/07/30 01:35:02;;;;;;;3.02;1.92;;;20.80;99.90;;;;;;942036;149;27929;-75
2023/07/30 01:37:28;;;;;;;2.08;1.90;;;20.80;99.90;;;;;;948712;147;27381;-75
2023/07/30 01:39:55;;;;;;;2.25;2.00;;;20.90;99.90;;;;;;947424;147;27308;-75
2023/07/30 01:42:21;;;;;;;2.33;2.12;;;20.90;99.90;;;;;;942130;149;27334;-75
2023/07/30 01:44:48;;;;;;;2.27;2.10;;;20.90;99.90;;;;;;942005;149;27381;-75
2023/07/30 01:47:15;;;;;;;1.67;1.57;;;20.90;99.90;;;;;;941997;149;27342;-75
2023/07/30 01:49:41;;;;;;;2.12;2.02;;;20.90;99.90;;;;;;942213;149;28053;-75
2023/07/30 01:52:08;;;;;;;2.58;1.90;;;20.90;99.90;;;;;;927479;150;27419;-75
2023/07/30 01:54:34;;;;;;;2.20;2.08;;;20.90;99.90;;;;;;950723;147;27845;-75
2023/07/30 01:57:01;;;;;;;2.25;2.05;;;20.90;99.90;;;;;;948249;146;27836;-75
2023/07/30 01:59:28;;;;;;;2.35;2.10;;;20.90;99.90;;;;;;926272;150;27378;-75
2023/07/30 02:01:54;;;;;;;3.30;2.02;;;20.90;99.90;;;;;;950672;147;27436;-75
2023/07/30 02:04:21;;;;;;;2.98;2.15;;;20.90;99.90;;;;;;948722;146;27358;-75
2023/07/30 02:06:48;;;;;;;1.98;1.87;;;20.90;99.90;;;;;;932392;150;27362;-75
2023/07/30 02:09:14;;;;;;;2.62;1.92;;;20.90;99.90;;;;;;936539;150;27387;-75
2023/07/30 02:11:40;;;;;;;2.22;2.00;;;20.90;99.90;;;;;;950154;147;27321;-75
2023/07/30 02:14:07;;;;;;;1.80;1.70;;;20.90;99.90;;;;;;950280;147;27313;-75
2023/07/30 02:16:34;;;;;;;1.80;1.70;;;20.90;99.90;;;;;;950226;147;27344;-75
2023/07/30 02:19:00;;;;;;;1.72;1.62;;;21.00;99.90;;;;;;950311;147;27341;-75
2023/07/30 02:21:27;;;;;;;1.92;1.82;;;21.00;99.90;;;;;;926482;150;27447;-75
2023/07/30 02:23:53;;;;;;;1.80;1.60;;;21.00;99.90;;;;;;942079;149;27333;-75
2023/07/30 02:26:20;;;;;;;1.87;1.77;;;21.00;99.90;;;;;;942212;149;27342;-75
2023/07/30 02:28:47;;;;;;;1.70;1.60;;;21.00;99.90;;;;;;942090;149;27452;-75
2023/07/30 02:31:13;;;;;;;1.80;1.50;;;21.00;99.90;;;;;;942126;149;27435;-75
2023/07/30 02:33:40;;;;;;;1.80;1.70;;;21.00;99.90;;;;;;941635;149;27779;-75
2023/07/30 02:36:06;;;;;;;1.98;1.40;;;21.00;99.90;;;;;;947889;147;27433;-71
2023/07/30 02:38:33;;;;;;;1.50;1.40;;;21.10;99.90;;;;;;948600;146;27357;-71
2023/07/30 02:41:00;;;;;;;2.75;1.60;;;21.10;99.90;;;;;;936183;149;27340;-71
2023/07/30 02:43:26;;;;;;;1.65;1.55;;;21.10;99.90;;;;;;936490;149;27320;-71
2023/07/30 02:45:53;;;;;;;1.80;1.60;;;21.10;99.90;;;;;;934975;149;27338;-71
2023/07/30 02:48:19;;;;;;;2.72;1.65;;;21.10;99.90;;;;;;934323;149;27348;-71
2023/07/30 02:50:46;;;;;;;2.10;1.90;;;21.10;99.90;;;;;;947608;147;27331;-71
2023/07/30 02:53:13;;;;;;;1.82;1.50;;;21.10;99.90;;;;;;942056;149;27337;-70
2023/07/30 02:55:39;;;;;;;1.92;1.37;;;21.10;99.90;;;;;;942038;149;27346;-71
2023/07/30 02:58:06;;;;;;;1.30;1.30;;;21.10;99.90;;;;;;942095;149;27372;-70
2023/07/30 03:00:32;;;;;;;1.42;1.37;;;21.10;99.90;;;;;;941976;149;27462;-70
2023/07/30 03:02:59;;;;;;;1.70;1.60;;;21.10;99.90;;;;;;926853;150;27403;-71
2023/07/30 03:05:25;;;;;;;1.70;1.60;;;21.10;99.90;;;;;;926414;150;27350;-70
2023/07/30 03:07:52;;;;;;;1.70;1.60;;;21.00;99.90;;;;;;927262;151;27326;-71
2023/07/30 03:10:19;;;;;;;1.92;1.82;;;21.00;99.90;;;;;;949205;148;27799;-71
2023/07/30 03:12:45;;;;;;;1.60;1.50;;;21.00;99.90;;;;;;948694;148;27441;-70
2023/07/30 03:15:12;;;;;;;2.55;1.40;;;21.00;99.90;;;;;;948594;148;27405;-71
2023/07/30 03:17:38;;;;;;;2.35;1.57;;;21.00;99.90;;;;;;948273;148;27325;-71
2023/07/30 03:20:05;;;;;;;3.62;1.55;;;21.00;99.90;;;;;;948149;148;27448;-71
2023/07/30 03:22:32;;;;;;;1.60;1.47;;;21.00;99.90;;;;;;948298;148;27352;-70
2023/07/30 03:24:58;;;;;;;2.87;1.35;;;21.00;99.90;;;;;;947921;148;27339;-70
2023/07/30 03:27:25;;;;;;;3.17;1.75;;;20.90;99.90;;;;;;948335;148;27380;-71
2023/07/30 03:29:51;;;;;;;1.62;1.52;;;21.00;99.90;;;;;;948069;148;27356;-71
2023/07/30 03:32:18;;;;;;;1.30;1.20;;;20.90;99.90;;;;;;948591;148;27360;-70
2023/07/30 03:34:45;;;;;;;1.42;1.20;;;20.90;99.90;;;;;;948283;148;27392;-71
2023/07/30 03:37:11;;;;;;;1.32;1.30;;;20.90;99.90;;;;;;946567;148;27868;-71
2023/07/30 03:39:38;;;;;;;1.22;1.12;;;20.90;99.90;;;;;;946461;151;27414;-71
2023/07/30 03:42:04;;;;;;;1.27;1.17;;;20.90;99.90;;;;;;945685;149;27376;-71
2023/07/30 03:44:31;;;;;;;1.30;1.30;;;20.90;99.90;;;;;;945956;149;27511;-71
2023/07/30 03:46:58;;;;;;;1.70;1.52;;;20.90;99.90;;;;;;946090;149;27513;-71
2023/07/30 03:49:24;;;;;;;1.45;1.20;;;20.90;99.90;;;;;;946017;149;27455;-70
2023/07/30 03:51:51;;;;;;;1.47;1.37;;;20.90;99.90;;;;;;946432;151;27422;-71
2023/07/30 03:54:17;;;;;;;1.37;1.37;;;20.90;99.90;;;;;;946130;151;27469;-71
2023/07/30 03:56:44;;;;;;;1.32;1.30;;;20.90;99.90;;;;;;945550;151;27357;-70
2023/07/30 03:59:11;;;;;;;1.30;1.20;;;20.90;99.90;;;;;;946403;151;27421;-71
2023/07/30 04:01:37;;;;;;;1.70;1.60;;;20.90;99.90;;;;;;945898;149;27340;-71
2023/07/30 04:04:04;;;;;;;1.12;1.12;;;20.90;99.90;;;;;;946038;151;27449;-70
2023/07/30 04:06:30;;;;;;;2.85;1.30;;;20.80;99.90;;;;;;936757;151;27374;-70
2023/07/30 04:08:57;;;;;;;1.70;1.50;;;20.80;99.90;;;;;;953172;147;27324;-71
2023/07/30 04:11:23;;;;;;;1.57;1.47;;;20.80;99.90;;;;;;953807;147;27331;-70
2023/07/30 04:13:50;;;;;;;2.58;1.60;;;20.70;99.90;;;;;;936748;151;27387;-71
2023/07/30 04:16:17;;;;;;;1.50;1.40;;;20.70;99.90;;;;;;954274;147;27359;-71
2023/07/30 04:18:43;;;;;;;1.90;1.70;;;20.60;99.90;;;;;;954009;149;27412;-70
2023/07/30 04:21:10;;;;;;;1.85;1.75;;;20.50;99.90;;;;;;946920;148;27370;-71
2023/07/30 04:23:36;;;;;;;1.60;1.50;;;20.50;99.90;;;;;;947058;148;27393;-70
2023/07/30 04:26:03;;;;;;;1.45;1.35;;;20.50;99.90;;;;;;946887;148;27422;-71
2023/07/30 04:28:30;;;;;;;1.72;1.62;;;20.40;99.90;;;;;;946286;148;27316;-71
2023/07/30 04:30:56;;;;;;;2.20;1.47;;;20.40;99.90;;;;;;946797;148;27324;-70
2023/07/30 04:33:23;;;;;;;1.22;1.22;;;20.40;99.90;;;;;;947252;148;27315;-71
2023/07/30 04:35:49;;;;;;;1.57;1.47;;;20.50;99.90;;;;;;946916;150;27417;-71
2023/07/30 04:38:16;;;;;;;1.70;1.60;;;20.50;99.90;;;;;;947146;148;27383;-70
2023/07/30 04:40:43;;;;;;;1.57;1.47;;;20.50;99.90;;;;;;946769;151;27307;-70
2023/07/30 04:43:09;;;;;;;1.65;1.40;;;20.60;99.90;;;;;;947099;148;27308;-71
2023/07/30 04:45:36;;;;;;;1.70;1.50;;;20.60;99.90;;;;;;946785;148;27409;-71
2023/07/30 04:48:02;;;;;;;2.12;1.65;;;20.70;99.90;;;;;;946377;148;27336;-71
2023/07/30 04:50:29;;;;;;;1.40;1.22;;;20.70;99.90;;;;;;946643;148;27339;-70
2023/07/30 04:52:55;;;;;;;1.55;1.45;;;20.80;99.90;;;;;;945593;151;27336;-71
2023/07/30 04:55:22;;;;;;;1.50;1.40;;;20.80;99.90;;;;;;936861;150;27355;-71
2023/07/30 04:57:49;;;;;;;2.30;1.35;;;20.90;99.90;;;;;;953314;147;27331;-71
2023/07/30 05:00:15;;;;;;;1.57;1.45;;;21.00;99.90;;;;;;953974;148;27868;-71
2023/07/30 05:02:42;;;;;;;2.85;2.35;;;21.00;99.90;;;;;;953723;148;27405;-71
2023/07/30 05:05:08;;;;;;;3.08;1.50;;;21.10;99.90;;;;;;953600;147;27337;-71
2023/07/30 05:07:35;;;;;;;3.08;1.42;;;21.20;99.90;;;;;;929767;151;27375;-71
2023/07/30 05:10:02;;;;;;;1.98;1.40;;;21.40;99.90;;;;;;931945;150;27462;-71
2023/07/30 05:12:28;;;;;;;1.40;1.30;;;21.50;99.90;;;;;;954186;148;27416;-70
2023/07/30 05:14:55;;;;;;;1.50;1.30;;;21.70;99.90;;;;;;937065;150;27354;-71
2023/07/30 05:17:21;;;;;;;1.50;1.40;;;21.80;99.90;;;;;;950301;148;27303;-71
2023/07/30 05:19:48;;;;;;;1.60;1.50;;;22.00;99.90;;;;;;953302;147;27415;-71
2023/07/30 05:22:15;;;;;;;2.35;1.30;;;22.00;99.90;;;;;;954009;148;27348;-71
2023/07/30 05:24:41;;;;;;;2.35;1.32;;;22.10;99.90;;;;;;937948;151;27352;-71
2023/07/30 05:27:08;;;;;;;1.55;1.45;;;22.20;99.90;;;;;;953988;147;27454;-71
2023/07/30 05:29:34;;;;;;;1.57;1.47;;;22.30;99.90;;;;;;949839;148;27292;-71
2023/07/30 05:32:01;;;;;;;1.60;1.50;;;22.40;99.90;;;;;;937363;151;27452;-71
2023/07/30 05:34:27;;;;;;;1.20;1.20;;;22.50;99.90;;;;;;954296;147;27416;-71
2023/07/30 05:36:54;;;;;;;1.60;1.50;;;22.60;99.90;;;;;;954342;146;27319;-71
2023/07/30 05:39:21;;;;;;;1.40;1.30;;;22.60;99.90;;;;;;965680;145;27346;-71
2023/07/30 05:41:47;;;;;;;1.42;1.32;;;22.70;99.90;;;;;;946330;149;27360;-71
2023/07/30 05:44:14;;;;;;;2.42;1.27;;;22.80;99.90;;;;;;944566;149;28056;-71
2023/07/30 05:46:40;;;;;;;2.12;1.42;;;22.90;99.90;;;;;;940676;149;27339;-71
2023/07/30 05:49:07;;;;;;;1.47;1.37;;;23.00;99.90;;;;;;960728;146;27322;-71
2023/07/30 05:51:34;;;;;;;1.60;1.20;;;23.00;99.90;;;;;;944540;148;27361;-71
2023/07/30 05:54:00;;;;;;;1.40;1.30;;;23.10;99.90;;;;;;947936;148;27885;-71
2023/07/30 05:56:27;;;;;;;2.15;1.40;;;23.20;99.90;;;;;;945632;148;27415;-71
2023/07/30 05:58:53;;;;;;;1.10;1.10;;;23.30;99.90;;;;;;962851;146;27416;-71
2023/07/30 06:01:20;;;;;;;1.27;1.00;;;23.40;99.90;;;;;;962891;146;27315;-72
2023/07/30 06:03:47;;;;;;;2.37;1.20;;;23.50;99.90;;;;;;962507;146;27370;-71
2023/07/30 06:06:13;;;;;;;1.32;1.30;;;23.70;99.90;;;;;;942533;149;27346;-71
2023/07/30 06:08:40;;;;;;;1.37;1.27;;;24.00;99.90;;;;;;962827;146;27312;-71
2023/07/30 06:11:06;;;;;;;1.20;1.10;;;24.50;99.90;;;;;;942583;148;27384;-71
2023/07/30 06:13:34;;;;;;;1.57;1.15;;;25.10;99.90;;;;;;947148;148;27309;-72
2023/07/30 06:16:00;;;;;;;1.12;1.10;;;25.90;99.90;;;;;;962596;145;27363;-72
2023/07/30 06:18:26;;;;;;;1.85;1.50;;;26.70;99.90;;;;;;962704;146;27288;-72
2023/07/30 06:20:53;;;;;;;1.27;1.17;;;27.60;99.90;;;;;;961650;146;27316;-72
2023/07/30 06:23:19;;;;;;;4.08;1.40;;;28.50;99.90;;;;;;965432;145;27766;-72
2023/07/30 06:25:46;;;;;;;1.17;1.07;;;29.40;99.90;;;;;;945587;148;27423;-72
2023/07/30 06:28:12;;;;;;;1.32;1.22;;;30.20;98.20;;;;;;942811;149;27811;-72
2023/07/30 06:30:39;;;;;;;1.15;1.12;;;31.00;95.00;;;;;;962880;146;27310;-72
2023/07/30 06:33:06;;;;;;;1.67;1.10;;;31.80;91.50;;;;;;946440;148;27375;-72
2023/07/30 06:35:32;;;;;;;1.45;0.90;;;32.60;88.30;;;;;;945480;149;26428;-72
2023/07/30 06:37:59;;;;;;;0.98;0.98;;;33.20;83.60;;;;;;959549;146;26410;-74
2023/07/30 06:40:25;;;;;;;1.50;1.10;;;33.90;80.40;;;;;;927846;150;26349;-74
2023/07/30 06:42:52;;;;;;;3.22;1.30;;;34.50;76.80;;;;;;933021;150;26253;-74
2023/07/30 06:45:19;;;;;;;1.00;1.00;;;35.00;74.60;;;;;;949632;147;26213;-74
2023/07/30 06:47:45;;;;;;;2.27;0.90;;;35.50;71.10;;;;;;949522;147;26339;-74
2023/07/30 06:50:12;;;;;;;1.00;1.00;;;35.80;66.90;;;;;;949556;146;27432;-74
2023/07/30 06:52:39;;;;;;;1.37;1.17;;;35.80;63.80;;;;;;933048;150;26251;-74
2023/07/30 06:55:05;;;;;;;0.80;0.80;;;35.70;61.50;;;;;;949137;147;27423;-74
2023/07/30 06:57:32;;;;;;;1.52;0.98;;;35.40;60.20;;;;;;949545;147;27316;-74
2023/07/30 06:59:58;;;;;;;1.17;0.85;;;35.00;59.80;;;;;;948664;146;27352;-74
2023/07/30 07:02:25;;;;;;;1.30;1.20;;;34.50;59.60;;;;;;949311;146;27427;-74
2023/07/30 07:04:51;;;;;;;1.65;1.20;;;34.00;59.50;;;;;;933347;150;27416;-74
2023/07/30 07:07:18;;;;;;;0.98;0.90;;;33.40;59.60;;;;;;951196;147;27410;-74
2023/07/30 07:09:45;;;;;;;1.62;1.17;;;32.90;59.70;;;;;;926331;150;27343;-74
2023/07/30 07:12:11;;;;;;;0.80;0.80;;;32.60;60.50;;;;;;949910;147;27329;-74
2023/07/30 07:14:39;;;;;;;1.00;1.00;;;32.20;61.20;;;;;;950107;147;27415;-74
2023/07/30 07:17:04;;;;;;;1.27;0.90;;;31.80;61.70;;;;;;949067;147;27423;-74
2023/07/30 07:19:36;;;;;;;2.60;1.20;;;31.60;62.20;;;;;;948171;146;27324;-74
2023/07/30 07:21:57;;;;;;;2.55;1.20;;;31.30;62.30;;;;;;926094;149;26362;-74
2023/07/30 07:24:24;;;;;;;1.20;1.15;;;31.10;62.30;;;;;;949750;147;27410;-74
2023/07/30 07:26:51;;;;;;;0.90;0.90;;;31.00;62.10;;;;;;943212;148;27471;-74
2023/07/30 07:29:17;;;;;;;1.70;1.22;;;30.80;62.20;;;;;;944637;149;27358;-74
2023/07/30 07:31:44;;;;;;;1.98;1.17;;;30.60;62.60;;;;;;945767;149;27494;-74
2023/07/30 07:34:10;;;;;;;1.82;1.22;;;30.50;62.90;;;;;;945799;149;27405;-74
2023/07/30 07:36:37;;;;;;;1.17;1.07;;;30.40;63.00;;;;;;945614;149;27346;-74
2023/07/30 07:39:04;;;;;;;1.90;1.05;;;30.40;63.20;;;;;;944802;149;27378;-74
2023/07/30 07:41:30;;;;;;;1.60;1.10;;;30.40;63.30;;;;;;946950;148;27324;-74
2023/07/30 07:43:57;;;;;;;1.77;0.90;;;30.30;63.20;;;;;;946602;148;27422;-74
2023/07/30 07:46:24;;;;;;;1.52;1.00;;;30.20;63.20;;;;;;946875;148;27289;-73
2023/07/30 07:48:50;;;;;;;1.40;1.30;;;30.20;63.30;;;;;;946723;148;27787;-73
2023/07/30 07:51:17;;;;;;;1.02;1.02;;;30.10;63.20;;;;;;947156;148;27292;-73
2023/07/30 07:53:43;;;;;;;1.17;1.00;;;30.00;63.30;;;;;;947057;148;27402;-73
2023/07/30 07:56:10;;;;;;;1.55;1.20;;;29.80;63.10;;;;;;946360;148;27308;-73
2023/07/30 07:58:37;;;;;;;1.40;1.30;;;29.70;63.30;;;;;;945880;148;27332;-73
2023/07/30 08:01:03;;;;;;;1.20;1.12;;;29.60;63.50;;;;;;945955;148;27406;-74
2023/07/30 08:03:29;;;;;;;1.67;1.00;;;29.40;63.40;;;;;;945785;151;27335;-73
2023/07/30 08:05:56;;;;;;;1.15;1.05;;;29.30;63.50;;;;;;945984;148;27317;-73
2023/07/30 08:08:23;;;;;;;0.90;0.90;;;29.20;63.50;;;;;;946207;148;27374;-73
2023/07/30 08:10:49;;;;;;;2.80;1.62;;;29.10;63.70;;;;;;946936;151;27653;-73
2023/07/30 08:13:16;;;;;;;2.42;1.10;;;28.90;63.60;;;;;;946673;148;27348;-73
2023/07/30 08:15:42;;;;;;;2.25;0.95;;;28.70;63.80;;;;;;946859;148;27428;-73
2023/07/30 08:18:09;;;;;;;1.20;1.10;;;28.50;63.60;;;;;;947142;148;27297;-74
2023/07/30 08:20:36;;;;;;;1.00;1.00;;;28.30;63.90;;;;;;946350;151;27339;-73
2023/07/30 08:23:02;;;;;;;1.10;1.00;;;28.10;64.10;;;;;;945284;148;27390;-73
2023/07/30 08:25:29;;;;;;;1.12;1.02;;;27.80;64.30;;;;;;946696;148;27422;-73
2023/07/30 08:27:55;;;;;;;1.37;1.27;;;27.60;64.90;;;;;;946656;148;27421;-73
2023/07/30 08:30:22;;;;;;;1.30;1.30;;;27.30;65.30;;;;;;947033;148;27289;-74
2023/07/30 08:32:49;;;;;;;1.30;1.20;;;27.20;66.20;;;;;;946822;148;27324;-74
2023/07/30 08:35:15;;;;;;;1.10;1.00;;;27.00;66.40;;;;;;946828;151;27332;-74
2023/07/30 08:37:42;;;;;;;1.50;1.40;;;26.80;66.60;;;;;;947222;148;27328;-74
2023/07/30 08:40:09;;;;;;;1.02;1.02;;;26.70;66.90;;;;;;947158;148;27340;-73
2023/07/30 08:42:35;;;;;;;1.30;1.20;;;26.50;67.20;;;;;;946797;151;27317;-73
2023/07/30 08:45:02;;;;;;;1.40;1.30;;;26.40;68.30;;;;;;946830;148;27442;-73
2023/07/30 08:47:29;;;;;;;1.40;1.30;;;26.30;67.80;;;;;;945462;148;27343;-73
2023/07/30 08:49:55;;;;;;;0.98;0.98;;;26.20;68.50;;;;;;945942;148;27325;-74
2023/07/30 08:52:22;;;;;;;1.70;0.90;;;26.20;69.80;;;;;;945823;148;27285;-73
2023/07/30 08:54:48;;;;;;;1.00;1.00;;;26.20;70.70;;;;;;945718;151;27402;-73
2023/07/30 08:57:15;;;;;;;0.90;0.90;;;26.40;71.40;;;;;;946350;148;28074;-74
2023/07/30 08:59:41;;;;;;;1.30;1.05;;;26.70;71.30;;;;;;946468;148;27349;-74
2023/07/30 09:02:08;;;;;;;0.80;0.80;;;26.90;71.00;;;;;;946063;148;27312;-73
2023/07/30 09:04:35;;;;;;;0.93;0.72;;;27.30;71.00;;;;;;945605;148;27292;-74
2023/07/30 09:07:01;;;;;;;1.25;0.90;;;27.60;70.80;;;;;;946467;148;27387;-73
2023/07/30 09:09:28;;;;;;;1.10;0.70;;;28.00;70.30;;;;;;946935;148;27336;-74
2023/07/30 09:11:54;;;;;;;0.70;0.68;;;28.50;69.00;;;;;;945698;148;27313;-73
2023/07/30 09:14:21;;;;;;;0.60;0.60;;;28.90;67.70;;;;;;944832;149;27344;-74
2023/07/30 09:16:48;;;;;;;0.72;0.72;;;29.30;67.20;;;;;;943684;148;27289;-73
2023/07/30 09:19:17;;;;;;;0.62;0.62;;;29.70;66.20;;;;;;946012;148;27694;-74
2023/07/30 09:21:43;;;;;;;0.50;0.50;;;30.00;65.30;;;;;;946873;148;27418;-74
2023/07/30 09:24:10;;;;;;;0.60;0.60;;;30.30;64.10;;;;;;947227;151;27387;-73
2023/07/30 09:26:43;;;;;;;0.68;0.68;;;30.50;63.00;;;;;;947038;148;27357;-74
2023/07/30 09:29:09;;;;;;;0.70;0.70;;;30.70;61.80;;;;;;938776;150;27356;-74
2023/07/30 09:31:59;;;;;;;0.55;0.55;;;30.70;61.00;;;;;;937666;150;27459;-74
2023/07/30 09:34:17;;;;;;;0.50;0.50;;;30.80;60.90;;;;;;950111;148;27449;-74
2023/07/30 09:36:43;;;;;;;0.78;0.70;;;30.90;61.30;;;;;;936714;151;27360;-74
2023/07/30 09:39:22;;;;;;;0.72;0.72;;;31.00;61.60;;;;;;928119;151;27345;-74
2023/07/30 09:41:48;;;;;;;0.80;0.80;;;31.30;61.70;;;;;;958710;146;27500;-74
2023/07/30 09:44:16;;;;;;;1.12;1.05;;;31.50;61.80;;;;;;964477;145;27411;-74
2023/07/30 09:46:45;;;;;;;1.17;1.17;;;31.80;61.80;;;;;;964492;145;27324;-74
2023/07/30 09:49:11;;;;;;;1.27;1.17;;;32.10;61.60;;;;;;965125;148;27370;-74
2023/07/30 09:51:40;;;;;;;1.42;1.15;;;32.50;61.00;;;;;;964524;145;27347;-74
2023/07/30 09:54:07;;;;;;;1.50;1.37;;;32.70;60.10;;;;;;963853;148;27364;-74
2023/07/30 09:56:34;;;;;;;1.10;1.10;;;33.00;59.60;;;;;;963831;146;27339;-74
2023/07/30 09:59:00;;;;;;;1.20;1.20;;;33.20;58.80;;;;;;964561;148;27423;-74
2023/07/30 10:01:27;;;;;;;1.00;1.00;;;33.30;58.20;;;;;;953307;148;27452;-74
2023/07/30 10:03:53;;;;;;;1.10;1.10;;;33.20;57.50;;;;;;947117;148;27336;-74
2023/07/30 10:06:20;;;;;;;1.52;1.42;;;33.20;57.20;;;;;;946747;148;27332;-73
2023/07/30 10:08:47;;;;;;;1.92;1.12;;;32.90;57.00;;;;;;958820;147;27402;-73
2023/07/30 10:11:13;;;;;;;0.75;0.70;;;32.60;56.60;;;;;;963530;146;27351;-73
2023/07/30 10:13:40;;;;;;;0.90;0.57;;;32.10;55.10;;;;;;963572;148;27343;-73
2023/07/30 10:16:12;;;;;;;0.42;0.42;;;31.60;55.00;;;;;;963342;148;27390;-73
2023/07/30 10:18:41;;;;;;;0.50;0.50;;;30.90;55.30;;;;;;962246;148;27363;-73
2023/07/30 10:21:09;;;;;;;0.65;0.60;;;30.20;56.10;;;;;;962636;148;27401;-73
2023/07/30 10:23:34;;;;;;;0.50;0.50;;;29.50;56.20;;;;;;963227;145;27428;-73
2023/07/30 10:26:01;;;;;;;0.37;0.37;;;29.00;56.50;;;;;;962554;148;27306;-73
2023/07/30 10:28:30;;;;;;;0.80;0.65;;;28.40;57.10;;;;;;959813;148;27374;-73
2023/07/30 10:30:57;;;;;;;0.40;0.35;;;27.90;57.60;;;;;;962193;146;27427;-73
2023/07/30 10:33:24;;;;;;;0.40;0.40;;;27.40;58.10;;;;;;961582;145;27391;-74
2023/07/30 10:35:50;;;;;;;0.25;0.25;;;27.00;58.60;;;;;;960605;146;27432;-73
2023/07/30 10:38:17;;;;;;;0.70;0.50;;;26.70;59.70;;;;;;960961;146;27347;-73
2023/07/30 10:41:01;;;;;;;0.40;0.40;;;26.30;59.50;;;;;;960423;146;27399;-73
2023/07/30 10:43:31;;;;;;;0.50;0.50;;;26.10;59.90;;;;;;957943;146;27304;-73
2023/07/30 10:45:57;;;;;;;0.40;0.30;;;25.70;60.30;;;;;;962204;146;27310;-73
2023/07/30 10:48:33;;;;;;;0.55;0.30;;;25.60;61.10;;;;;;957554;146;27346;-73
2023/07/30 10:51:00;;;;;;;0.55;0.42;;;25.40;61.40;;;;;;957345;148;27420;-73
2023/07/30 10:53:26;;;;;;;0.42;0.40;;;25.40;62.00;;;;;;955824;148;27331;-73
2023/07/30 10:55:54;;;;;;;0.33;0.33;;;25.30;62.30;;;;;;956461;148;27316;-73
2023/07/30 10:58:19;;;;;;;0.47;0.40;;;25.40;62.60;;;;;;946343;148;27468;-73
2023/07/30 11:00:46;;;;;;;0.85;0.60;;;25.40;62.50;;;;;;945529;149;27364;-73
2023/07/30 11:03:13;;;;;;;0.50;0.50;;;25.50;62.40;;;;;;960916;146;27346;-73
2023/07/30 11:05:39;;;;;;;1.82;0.60;;;25.70;62.30;;;;;;961041;146;27315;-73
2023/07/30 11:08:06;;;;;;;1.15;1.05;;;25.90;62.00;;;;;;945324;148;27417;-73
2023/07/30 11:10:32;;;;;;;0.42;0.42;;;26.10;61.80;;;;;;944688;149;27357;-73
2023/07/30 11:12:59;;;;;;;0.93;0.47;;;26.20;61.50;;;;;;961120;146;27375;-73
2023/07/30 11:15:26;;;;;;;0.40;0.40;;;26.40;61.30;;;;;;947787;148;27453;-73
2023/07/30 11:17:52;;;;;;;1.98;0.72;;;26.70;61.10;;;;;;941280;149;27354;-73
2023/07/30 11:20:27;;;;;;;1.25;0.62;;;26.90;61.00;;;;;;962837;146;27433;-73
2023/07/30 11:22:51;;;;;;;0.75;0.70;;;27.00;60.20;;;;;;944269;148;27494;-73
2023/07/30 11:25:18;;;;;;;1.00;0.80;;;27.20;59.90;;;;;;966062;145;27362;-73
2023/07/30 11:27:48;;;;;;;0.53;0.40;;;27.30;59.70;;;;;;963120;146;27307;-73
2023/07/30 11:30:14;;;;;;;1.00;0.70;;;27.40;59.40;;;;;;942560;149;27379;-73
2023/07/30 11:32:44;;;;;;;1.15;0.60;;;27.50;59.20;;;;;;962247;146;27328;-73
2023/07/30 11:35:10;;;;;;;0.70;0.70;;;27.50;59.00;;;;;;945943;148;27460;-73
2023/07/30 11:37:39;;;;;;;1.32;0.68;;;27.60;58.90;;;;;;962588;146;27659;-73
2023/07/30 11:40:03;;;;;;;0.62;0.62;;;27.60;58.80;;;;;;961722;146;27344;-73
2023/07/30 11:42:31;;;;;;;0.90;0.75;;;27.60;59.00;;;;;;966679;145;27406;-73
2023/07/30 11:44:56;;;;;;;1.52;0.80;;;27.70;59.10;;;;;;957241;147;27755;-74
2023/07/30 11:47:23;;;;;;;0.70;0.70;;;27.80;59.10;;;;;;967830;145;27408;-73
2023/07/30 11:49:58;;;;;;;1.50;0.65;;;27.90;59.00;;;;;;968973;145;27438;-73
2023/07/30 11:52:25;;;;;;;2.17;0.82;;;28.00;58.40;;;;;;949701;148;27365;-75
2023/07/30 11:55:01;;;;;;;0.82;0.82;;;28.10;58.00;;;;;;967767;145;27455;-75
2023/07/30 11:57:33;;;;;;;1.47;1.17;;;28.20;57.60;;;;;;965939;145;27321;-75
2023/07/30 11:59:59;;;;;;;1.47;1.00;;;28.20;57.40;;;;;;946830;148;27297;-75
2023/07/30 12:02:26;;;;;;;2.05;0.93;;;28.30;57.20;;;;;;950420;148;27427;-75
2023/07/30 12:04:52;;;;;;;1.32;1.12;;;28.30;56.80;;;;;;967995;145;27373;-75
2023/07/30 12:07:22;;;;;;;1.22;0.93;;;28.30;56.10;;;;;;957997;147;27377;-76
2023/07/30 12:09:48;;;;;;;1.25;1.00;;;28.30;55.60;;;;;;948139;148;27507;-75
2023/07/30 12:12:15;;;;;;;2.08;1.10;;;28.20;55.50;;;;;;968446;145;27446;-75
2023/07/30 12:14:50;;;;;;;1.05;0.95;;;28.10;54.80;;;;;;967896;145;27436;-75
2023/07/30 12:17:17;;;;;;;2.25;1.00;;;28.00;54.80;;;;;;966929;145;27379;-75
2023/07/30 12:19:44;;;;;;;1.50;0.80;;;27.90;54.70;;;;;;951288;147;27355;-75
2023/07/30 12:22:10;;;;;;;2.00;1.15;;;27.80;54.60;;;;;;967597;145;27391;-75
2023/07/30 12:24:37;;;;;;;1.12;0.85;;;27.70;54.20;;;;;;950217;148;27349;-75
2023/07/30 12:27:04;;;;;;;1.05;0.80;;;27.50;54.30;;;;;;967870;145;27323;-75
2023/07/30 12:29:30;;;;;;;1.62;0.93;;;27.30;54.20;;;;;;968297;145;27299;-75
2023/07/30 12:31:57;;;;;;;1.20;0.80;;;27.20;54.30;;;;;;952207;148;27436;-75
2023/07/30 12:34:23;;;;;;;1.25;0.80;;;27.10;54.50;;;;;;966478;145;27482;-75
2023/07/30 12:36:50;;;;;;;1.50;0.98;;;27.00;55.00;;;;;;966158;146;27311;-75
2023/07/30 12:39:16;;;;;;;1.27;1.12;;;27.00;55.10;;;;;;965585;148;27443;-75
2023/07/30 12:41:43;;;;;;;3.20;1.00;;;27.00;55.20;;;;;;949072;148;27345;-75
2023/07/30 12:44:10;;;;;;;1.60;1.17;;;27.00;55.30;;;;;;949452;147;27345;-75
2023/07/30 12:46:36;;;;;;;0.80;0.78;;;27.10;55.50;;;;;;950968;147;27340;-75